createdAt,value
2019-01-11T00:00:06.122Z,5.40
2019-01-11T00:02:33.731Z,5.47
2019-01-11T00:05:01.382Z,5.85
2019-01-11T00:07:29.170Z,5.47
2019-01-11T00:09:56.752Z,5.70
2019-01-11T00:12:24.346Z,5.70
2019-01-11T00:14:53.122Z,5.28
2019-01-11T00:17:20.763Z,5.95
2019-01-11T00:19:48.375Z,6.65
2019-01-11T00:22:16.478Z,6.17
2019-01-11T00:24:44.215Z,5.50
2019-01-11T00:27:11.926Z,5.85
2019-01-11T00:29:39.630Z,6.05
2019-01-11T00:32:07.209Z,5.60
2019-01-11T00:34:34.905Z,5.90
2019-01-11T00:37:03.150Z,5.65
2019-01-11T00:39:30.778Z,5.37
2019-01-11T00:41:58.437Z,6.20
2019-01-11T00:44:26.363Z,6.15
2019-01-11T00:46:53.939Z,5.80
2019-01-11T00:49:21.904Z,6.12
2019-01-11T00:51:51.509Z,5.83
2019-01-11T00:54:19.168Z,6.00
2019-01-11T00:56:46.747Z,6.35
2019-01-11T00:59:14.486Z,6.53
2019-01-11T01:01:42.202Z,7.12
2019-01-11T01:04:09.841Z,6.50
2019-01-11T01:06:37.839Z,6.78
2019-01-11T01:09:07.787Z,6.62
2019-01-11T01:11:35.408Z,6.28
2019-01-11T01:14:03.495Z,6.92
2019-01-11T01:16:31.275Z,6.58
2019-01-11T01:18:58.873Z,6.80
2019-01-11T01:21:26.593Z,7.40
2019-01-11T01:23:54.217Z,7.00
2019-01-11T01:26:21.864Z,7.10
2019-01-11T01:28:52.226Z,7.00
2019-01-11T01:31:20.020Z,6.87
2019-01-11T01:33:48.969Z,6.87
2019-01-11T01:36:18.802Z,6.70
2019-01-11T01:38:46.562Z,6.70
2019-01-11T01:41:14.162Z,6.40
2019-01-11T01:43:42.149Z,6.50
2019-01-11T01:46:09.931Z,6.22
2019-01-11T02:11:25.350Z,6.97
2019-01-11T02:13:52.897Z,7.22
2019-01-11T02:16:20.477Z,6.72
2019-01-11T02:18:48.153Z,7.03
2019-01-11T02:21:15.802Z,7.35
2019-01-11T02:23:43.475Z,7.40
2019-01-11T02:26:11.365Z,7.83
2019-01-11T02:28:42.759Z,7.80
2019-01-11T02:31:10.896Z,7.03
2019-01-11T02:33:38.526Z,7.83
2019-01-11T02:36:06.200Z,7.85
2019-01-11T02:38:33.900Z,7.92
2019-01-11T02:41:01.783Z,7.35
2019-01-11T02:43:29.400Z,8.53
2019-01-11T02:45:57.003Z,8.98
2019-01-11T02:48:24.640Z,8.18
2019-01-11T02:50:52.228Z,8.83
2019-01-11T02:53:31.979Z,8.80
2019-01-11T02:56:01.065Z,8.68
2019-01-11T02:58:28.690Z,9.10
2019-01-11T03:00:56.557Z,9.03
2019-01-11T03:03:25.909Z,9.10
2019-01-11T03:05:53.505Z,9.18
2019-01-11T03:08:21.230Z,8.83
2019-01-11T03:10:48.835Z,9.40
2019-01-11T03:13:16.368Z,9.33
2019-01-11T03:15:44.201Z,9.15
2019-01-11T03:18:11.781Z,9.23
2019-01-11T03:20:39.385Z,8.85
2019-01-11T03:23:07.264Z,9.18
2019-01-11T03:25:34.826Z,9.20
2019-01-11T03:28:02.418Z,9.63
2019-01-11T03:30:30.133Z,8.65
2019-01-11T03:32:57.702Z,9.65
2019-01-11T03:35:25.268Z,8.78
2019-01-11T03:37:53.065Z,9.18
2019-01-11T03:40:22.243Z,9.73
2019-01-11T03:42:49.957Z,10.15
2019-01-11T03:45:19.024Z,10.23
2019-01-11T03:47:46.646Z,10.55
2019-01-11T03:50:15.798Z,10.00
2019-01-11T03:52:43.771Z,10.28
2019-01-11T03:55:13.205Z,10.35
2019-01-11T03:57:40.901Z,10.95
2019-01-11T04:00:25.079Z,11.35
2019-01-11T04:02:55.007Z,10.90
2019-01-11T04:05:22.781Z,10.45
2019-01-11T04:07:50.555Z,10.58
2019-01-11T04:10:22.872Z,10.93
2019-01-11T04:12:50.428Z,11.88
2019-01-11T04:15:19.247Z,11.25
2019-01-11T04:17:55.601Z,10.95
2019-01-11T04:20:23.247Z,11.05
2019-01-11T04:22:53.489Z,10.20
2019-01-11T04:25:26.309Z,10.30
2019-01-11T04:27:53.921Z,11.60
2019-01-11T04:30:22.100Z,10.32
2019-01-11T04:32:50.053Z,10.50
2019-01-11T04:35:17.668Z,10.60
2019-01-11T04:37:45.456Z,10.70
2019-01-11T04:40:14.840Z,10.50
2019-01-11T04:42:42.690Z,10.82
2019-01-11T04:45:10.385Z,12.05
2019-01-11T04:47:38.076Z,12.65
2019-01-11T04:50:09.542Z,12.82
2019-01-11T04:52:36.137Z,12.85
2019-01-11T04:55:04.644Z,13.48
2019-01-11T04:57:32.311Z,13.30
2019-01-11T04:59:59.883Z,14.53
2019-01-11T05:02:27.507Z,13.48
2019-01-11T05:04:55.081Z,14.28
2019-01-11T05:07:22.956Z,14.15
2019-01-11T05:09:51.008Z,13.80
2019-01-11T05:12:18.600Z,13.22
2019-01-11T05:14:46.175Z,14.58
2019-01-11T05:17:13.829Z,16.02
2019-01-11T05:19:41.515Z,16.52
2019-01-11T05:22:09.089Z,16.25
2019-01-11T05:24:37.081Z,17.10
2019-01-11T05:27:04.989Z,15.18
2019-01-11T05:29:32.659Z,17.75
2019-01-11T05:32:00.305Z,17.80
2019-01-11T05:34:27.910Z,17.07
2019-01-11T05:36:55.555Z,16.70
2019-01-11T05:39:23.434Z,14.80
2019-01-11T05:41:53.889Z,16.80
2019-01-11T05:44:21.431Z,17.10
2019-01-11T05:46:49.213Z,18.52
2019-01-11T05:49:16.752Z,19.32
2019-01-11T05:51:44.553Z,17.15
2019-01-11T05:54:12.220Z,17.90
2019-01-11T05:56:39.760Z,18.40
2019-01-11T05:59:08.441Z,18.12
2019-01-11T06:01:36.265Z,18.00
2019-01-11T06:04:20.005Z,18.73
2019-01-11T06:07:05.993Z,19.17
2019-01-11T06:09:33.709Z,18.55
2019-01-11T06:12:01.320Z,18.02
2019-01-11T06:14:29.092Z,17.92
2019-01-11T06:16:56.663Z,16.77
2019-01-11T06:19:24.334Z,17.20
2019-01-11T06:21:52.115Z,16.95
2019-01-11T06:24:19.723Z,16.87
2019-01-11T06:26:47.270Z,16.52
2019-01-11T06:29:15.077Z,16.77
2019-01-11T06:31:42.655Z,16.23
2019-01-11T06:34:10.301Z,18.02
2019-01-11T06:36:38.095Z,16.17
2019-01-11T06:39:06.401Z,15.28
2019-01-11T06:41:41.560Z,17.23
2019-01-11T06:44:09.130Z,16.27
2019-01-11T06:46:36.791Z,17.10
2019-01-11T06:49:04.536Z,14.78
2019-01-11T06:51:32.070Z,16.30
2019-01-11T06:53:59.654Z,15.93
2019-01-11T06:56:35.288Z,15.58
2019-01-11T06:59:10.527Z,15.98
2019-01-11T07:01:38.161Z,14.75
2019-01-11T07:04:05.744Z,15.88
2019-01-11T07:06:33.320Z,18.75
2019-01-11T07:09:01.122Z,17.42
2019-01-11T07:11:28.694Z,16.40
2019-01-11T07:13:56.258Z,16.97
2019-01-11T07:16:24.095Z,16.90
2019-01-11T07:18:51.640Z,16.50
2019-01-11T07:21:19.245Z,15.70
2019-01-11T07:23:46.855Z,16.57
2019-01-11T07:26:14.545Z,16.55
2019-01-11T07:28:42.120Z,17.35
2019-01-11T07:31:16.131Z,17.10
2019-01-11T07:33:43.716Z,18.25
2019-01-11T07:36:36.647Z,17.67
2019-01-11T07:39:29.809Z,19.67
2019-01-11T07:41:57.448Z,16.97
2019-01-11T07:44:26.015Z,16.52
2019-01-11T07:46:53.701Z,17.25
2019-01-11T07:49:23.208Z,17.45
2019-01-11T07:51:51.188Z,17.35
2019-01-11T07:54:18.754Z,17.73
2019-01-11T07:56:46.913Z,17.00
2019-01-11T07:59:18.689Z,17.62
2019-01-11T08:01:46.261Z,16.55
2019-01-11T08:04:13.977Z,18.70
2019-01-11T08:06:41.561Z,17.90
2019-01-11T08:09:12.279Z,17.57
2019-01-11T08:11:39.914Z,18.12
2019-01-11T08:14:08.004Z,16.87
2019-01-11T08:16:35.563Z,17.35
2019-01-11T08:19:05.033Z,16.32
2019-01-11T08:21:32.593Z,16.05
2019-01-11T08:24:00.273Z,17.62
2019-01-11T08:26:28.031Z,18.67
2019-01-11T08:28:55.660Z,17.87
2019-01-11T08:31:23.232Z,16.75
2019-01-11T08:33:51.334Z,18.87
2019-01-11T08:36:21.945Z,18.82
2019-01-11T08:38:50.834Z,19.05
2019-01-11T08:41:18.669Z,17.82
2019-01-11T08:43:48.393Z,20.40
2019-01-11T08:46:15.992Z,19.25
2019-01-11T08:48:43.694Z,17.82
2019-01-11T08:51:11.225Z,19.15
2019-01-11T08:53:38.886Z,18.85
2019-01-11T08:56:08.503Z,19.40
2019-01-11T08:58:36.331Z,19.87
2019-01-11T09:01:06.854Z,19.62
2019-01-11T09:03:34.525Z,19.35
2019-01-11T09:06:04.557Z,19.42
2019-01-11T09:08:32.137Z,20.32
2019-01-11T09:10:59.830Z,18.27
2019-01-11T09:13:28.350Z,19.35
2019-01-11T09:15:55.951Z,18.85
2019-01-11T09:18:40.500Z,18.02
2019-01-11T09:21:09.664Z,18.32
2019-01-11T09:23:37.455Z,18.98
2019-01-11T09:26:05.297Z,17.77
2019-01-11T09:28:32.979Z,22.60
2019-01-11T09:31:00.608Z,20.90
2019-01-11T09:33:28.596Z,17.95
2019-01-11T09:35:56.195Z,15.98
2019-01-11T09:38:23.799Z,17.62
2019-01-11T09:40:54.634Z,15.95
2019-01-11T09:43:22.307Z,16.02
2019-01-11T09:45:49.901Z,14.80
2019-01-11T09:48:17.559Z,14.65
2019-01-11T09:50:45.201Z,14.35
2019-01-11T09:53:12.785Z,12.90
2019-01-11T09:55:40.642Z,13.93
2019-01-11T09:58:08.288Z,13.03
2019-01-11T10:00:38.657Z,13.05
2019-01-11T10:03:08.214Z,13.10
2019-01-11T10:05:35.810Z,12.80
2019-01-11T10:08:04.649Z,12.00
2019-01-11T10:10:32.441Z,11.55
2019-01-11T10:13:01.394Z,10.98
2019-01-11T10:15:28.986Z,10.88
2019-01-11T10:17:56.693Z,10.65
2019-01-11T10:20:24.321Z,10.55
2019-01-11T10:22:51.994Z,10.30
2019-01-11T10:25:20.670Z,16.70
2019-01-11T10:27:51.377Z,11.35
2019-01-11T10:30:21.844Z,11.00
2019-01-11T10:32:49.654Z,11.50
2019-01-11T10:35:21.171Z,10.58
2019-01-11T10:37:48.821Z,12.35
2019-01-11T10:40:17.309Z,11.20
2019-01-11T10:42:45.179Z,11.22
2019-01-11T10:45:21.122Z,12.28
2019-01-11T10:47:50.788Z,11.65
2019-01-11T10:50:21.236Z,11.12
2019-01-11T10:52:49.770Z,11.53
2019-01-11T10:55:17.912Z,10.72
2019-01-11T10:57:47.977Z,11.85
2019-01-11T11:00:25.873Z,11.80
2019-01-11T11:02:56.170Z,11.20
2019-01-11T11:05:26.935Z,9.68
2019-01-11T11:07:54.796Z,10.45
2019-01-11T11:10:25.186Z,10.82
2019-01-11T11:12:59.007Z,11.18
2019-01-11T11:15:26.609Z,10.95
2019-01-11T11:17:57.197Z,11.12
2019-01-11T11:20:26.296Z,11.35
2019-01-11T11:22:54.219Z,11.83
2019-01-11T11:25:23.692Z,11.20
2019-01-11T11:27:53.346Z,11.73
2019-01-11T11:30:21.964Z,10.65
2019-01-11T11:33:03.215Z,11.70
2019-01-11T11:35:33.684Z,12.98
2019-01-11T11:38:01.605Z,13.68
2019-01-11T11:40:30.328Z,12.65
2019-01-11T11:42:58.060Z,11.65
2019-01-11T11:45:26.010Z,12.10
2019-01-11T11:47:56.102Z,14.78
2019-01-11T11:50:25.175Z,12.50
2019-01-11T11:52:53.053Z,12.63
2019-01-11T11:55:20.956Z,12.90
2019-01-11T11:57:48.536Z,12.75
2019-01-11T12:00:18.794Z,11.90
2019-01-11T12:02:46.759Z,12.73
2019-01-11T12:05:14.647Z,13.60
2019-01-11T12:07:42.609Z,12.93
2019-01-11T12:10:13.400Z,11.48
2019-01-11T12:12:41.447Z,11.97
2019-01-11T12:15:10.230Z,13.75
2019-01-11T12:17:38.207Z,13.25
2019-01-11T12:20:08.142Z,13.05
2019-01-11T12:22:35.790Z,12.35
2019-01-11T12:25:04.433Z,12.65
2019-01-11T12:27:32.020Z,13.13
2019-01-11T12:29:59.695Z,13.25
2019-01-11T12:32:27.430Z,12.73
2019-01-11T12:34:55.057Z,14.03
2019-01-11T12:37:22.791Z,12.13
2019-01-11T12:39:50.420Z,12.73
2019-01-11T12:42:18.049Z,13.03
2019-01-11T12:44:45.663Z,12.68
2019-01-11T12:47:16.717Z,13.50
2019-01-11T12:49:44.496Z,12.18
2019-01-11T12:52:12.043Z,13.05
2019-01-11T12:54:41.019Z,13.10
2019-01-11T12:57:08.893Z,11.22
2019-01-11T12:59:36.674Z,12.13
2019-01-11T13:02:04.671Z,12.63
2019-01-11T13:04:32.324Z,13.05
2019-01-11T13:07:00.303Z,12.60
2019-01-11T13:09:28.362Z,12.13
2019-01-11T13:11:56.269Z,10.88
2019-01-11T13:14:24.185Z,12.65
2019-01-11T13:16:54.172Z,11.85
2019-01-11T13:19:21.875Z,11.48
2019-01-11T13:21:49.835Z,12.10
2019-01-11T13:24:20.400Z,9.85
2019-01-11T13:26:48.544Z,10.85
2019-01-11T13:29:18.022Z,9.38
2019-01-11T13:31:45.987Z,8.80
2019-01-11T13:34:13.777Z,9.35
2019-01-11T13:36:41.421Z,10.58
2019-01-11T13:39:12.477Z,11.05
2019-01-11T13:41:40.186Z,11.50
2019-01-11T13:44:07.864Z,11.97
2019-01-11T13:46:35.609Z,13.43
2019-01-11T13:49:03.818Z,11.20
2019-01-11T13:51:31.517Z,11.65
2019-01-11T13:54:02.448Z,12.23
2019-01-11T13:56:35.727Z,11.88
2019-01-11T13:59:05.087Z,11.35
2019-01-11T14:01:32.793Z,11.85
2019-01-11T14:04:00.510Z,11.70
2019-01-11T14:06:33.026Z,11.90
2019-01-11T14:09:00.625Z,10.93
2019-01-11T14:11:28.243Z,11.08
2019-01-11T14:13:55.835Z,11.38
2019-01-11T14:16:23.656Z,10.65
2019-01-11T14:18:51.281Z,11.00
2019-01-11T14:21:19.116Z,11.43
2019-01-11T14:23:46.695Z,12.65
2019-01-11T14:26:14.316Z,11.35
2019-01-11T14:28:41.892Z,11.53
2019-01-11T14:31:09.556Z,10.48
2019-01-11T14:33:38.705Z,9.25
2019-01-11T14:36:06.386Z,10.85
2019-01-11T14:38:34.021Z,11.45
2019-01-11T14:41:01.719Z,11.60
2019-01-11T14:43:29.398Z,12.40
2019-01-11T14:45:59.394Z,11.55
2019-01-11T14:48:26.999Z,11.97
2019-01-11T14:50:54.664Z,11.50
2019-01-11T14:53:25.906Z,12.35
2019-01-11T14:55:56.217Z,10.98
2019-01-11T14:58:28.713Z,11.97
2019-01-11T15:00:53.577Z,11.88
2019-01-11T15:03:21.206Z,11.95
2019-01-11T15:05:49.425Z,10.98
2019-01-11T15:08:17.299Z,11.90
2019-01-11T15:10:49.065Z,13.07
2019-01-11T15:13:17.782Z,11.88
2019-01-11T15:15:47.510Z,12.07
2019-01-11T15:18:17.968Z,12.73
2019-01-11T15:20:45.624Z,13.90
2019-01-11T15:23:13.639Z,13.50
2019-01-11T15:25:47.809Z,14.67
2019-01-11T15:28:15.511Z,16.13
2019-01-11T15:30:45.511Z,15.70
2019-01-11T15:33:13.261Z,15.05
2019-01-11T15:35:44.054Z,13.93
2019-01-11T15:38:11.931Z,13.60
2019-01-11T15:40:42.217Z,14.27
2019-01-11T15:43:09.941Z,13.30
2019-01-11T15:45:37.714Z,14.60
2019-01-11T15:48:05.386Z,13.25
2019-01-11T15:50:45.298Z,12.65
2019-01-11T15:53:12.841Z,14.10
2019-01-11T15:55:41.731Z,14.90
2019-01-11T15:58:09.910Z,14.03
2019-01-11T16:00:41.942Z,13.18
2019-01-11T16:03:11.089Z,12.90
2019-01-11T16:05:38.762Z,13.85
2019-01-11T16:08:06.390Z,13.00
2019-01-11T16:10:58.280Z,12.78
2019-01-11T16:13:42.779Z,12.20
2019-01-11T16:16:49.376Z,12.88
2019-01-11T16:19:17.071Z,14.00
2019-01-11T16:21:44.741Z,14.50
2019-01-11T16:24:12.506Z,13.88
2019-01-11T16:26:40.158Z,14.73
2019-01-11T16:29:07.772Z,11.95
2019-01-11T16:31:35.688Z,12.23
2019-01-11T16:34:03.366Z,11.55
2019-01-11T16:36:30.971Z,12.00
2019-01-11T16:38:58.884Z,11.53
2019-01-11T16:41:26.468Z,11.00
2019-01-11T16:43:54.081Z,10.83
2019-01-11T16:46:25.808Z,11.67
2019-01-11T16:48:53.440Z,12.20
2019-01-11T16:51:21.297Z,11.35
2019-01-11T16:53:48.922Z,10.15
2019-01-11T16:56:16.565Z,10.73
2019-01-11T16:58:49.545Z,10.27
2019-01-11T17:01:17.653Z,10.13
2019-01-11T17:03:45.376Z,10.33
2019-01-11T17:06:13.235Z,9.85
2019-01-11T17:08:41.019Z,10.80
2019-01-11T17:11:08.600Z,9.80
2019-01-11T17:13:40.676Z,8.63
2019-01-11T17:16:07.782Z,9.13
2019-01-11T17:18:35.687Z,8.70
2019-01-11T17:21:06.273Z,9.10
2019-01-11T17:23:39.410Z,8.10
2019-01-11T17:26:18.425Z,8.83
2019-01-11T17:28:51.330Z,8.57
2019-01-11T17:31:19.189Z,9.80
2019-01-11T17:33:46.814Z,9.30
2019-01-11T17:36:16.175Z,10.10
2019-01-11T17:38:47.595Z,10.60
2019-01-11T17:41:17.734Z,9.38
2019-01-11T17:43:45.548Z,7.80
2019-01-11T17:46:15.672Z,7.67
2019-01-11T17:48:46.235Z,7.83
2019-01-11T17:51:14.409Z,7.83
2019-01-11T17:53:42.267Z,7.83
2019-01-11T17:56:09.836Z,7.27
2019-01-11T17:58:39.052Z,7.17
2019-01-11T18:01:06.727Z,6.93
2019-01-11T18:03:34.295Z,7.20
2019-01-11T18:06:01.932Z,7.87
2019-01-11T18:08:29.540Z,8.00
2019-01-11T18:10:57.168Z,8.10
2019-01-11T18:13:24.947Z,7.90
2019-01-11T18:15:52.828Z,8.60
2019-01-11T18:18:20.401Z,9.07
2019-01-11T18:20:48.305Z,7.87
2019-01-11T18:23:15.990Z,8.03
2019-01-11T18:25:46.079Z,9.80
2019-01-11T18:28:14.029Z,9.40
2019-01-11T18:30:42.271Z,10.23
2019-01-11T18:33:09.932Z,9.60
2019-01-11T18:35:42.056Z,9.50
2019-01-11T18:38:09.698Z,9.47
2019-01-11T18:40:37.300Z,14.77
2019-01-11T18:43:07.350Z,9.87
2019-01-11T18:45:35.268Z,9.27
2019-01-11T18:48:03.281Z,9.93
2019-01-11T18:50:37.677Z,10.20
2019-01-11T18:53:05.321Z,10.80
2019-01-11T18:55:32.951Z,10.83
2019-01-11T18:58:03.610Z,12.57
2019-01-11T19:00:43.367Z,13.73
2019-01-11T19:03:11.378Z,10.20
2019-01-11T19:05:38.993Z,9.37
2019-01-11T19:08:06.708Z,9.87
2019-01-11T19:10:34.458Z,10.23
2019-01-11T19:13:02.251Z,10.83
2019-01-11T19:15:29.860Z,9.17
2019-01-11T19:18:00.595Z,10.47
2019-01-11T19:20:29.823Z,11.03
2019-01-11T19:23:11.749Z,9.70
2019-01-11T19:25:45.030Z,9.80
2019-01-11T19:28:17.841Z,10.13
2019-01-11T19:30:48.157Z,10.07
2019-01-11T19:33:22.148Z,9.70
2019-01-11T19:35:51.969Z,10.73
2019-01-11T19:38:22.482Z,11.23
2019-01-11T19:40:50.359Z,10.77
2019-01-11T19:43:18.227Z,9.83
2019-01-11T19:45:48.894Z,10.67
2019-01-11T19:48:19.135Z,10.87
2019-01-11T19:50:46.918Z,10.93
2019-01-11T19:53:27.422Z,11.63
2019-01-11T19:56:04.821Z,10.80
2019-01-11T19:58:38.424Z,11.53
2019-01-11T20:01:08.549Z,11.13
2019-01-11T20:03:38.862Z,11.20
2019-01-11T20:06:12.402Z,11.40
2019-01-11T20:08:50.098Z,11.80
2019-01-11T20:11:17.856Z,10.83
2019-01-11T20:13:47.633Z,10.37
2019-01-11T20:16:31.126Z,11.63
2019-01-11T20:19:01.342Z,24.53
2019-01-11T20:21:30.722Z,13.77
2019-01-11T20:23:59.893Z,11.03
2019-01-11T20:26:28.048Z,10.40
2019-01-11T20:28:56.400Z,9.97
2019-01-11T20:31:26.293Z,9.37
2019-01-11T20:33:54.401Z,9.83
2019-01-11T20:36:22.061Z,10.30
2019-01-11T20:38:53.101Z,9.13
2019-01-11T20:41:20.698Z,9.50
2019-01-11T20:43:53.016Z,9.07
2019-01-11T20:46:20.995Z,10.33
2019-01-11T20:48:48.848Z,9.77
2019-01-11T20:51:36.833Z,9.40
2019-01-11T20:54:05.894Z,10.67
2019-01-11T20:56:40.083Z,11.70
2019-01-11T20:59:24.371Z,11.40
2019-01-11T21:01:52.174Z,11.40
2019-01-11T21:04:29.471Z,11.60
2019-01-11T21:07:05.629Z,10.43
2019-01-11T21:09:36.381Z,9.90
2019-01-11T21:12:05.250Z,11.23
2019-01-11T21:14:32.921Z,9.10
2019-01-11T21:17:05.359Z,9.90
2019-01-11T21:19:33.185Z,10.37
2019-01-11T21:22:02.623Z,9.43
2019-01-11T21:24:36.649Z,9.03
2019-01-11T21:27:07.098Z,9.63
2019-01-11T21:29:40.076Z,8.97
2019-01-11T21:32:07.808Z,9.57
2019-01-11T21:34:37.496Z,9.73
2019-01-11T21:37:08.429Z,9.97
2019-01-11T21:39:44.600Z,9.33
2019-01-11T21:42:19.892Z,9.07
2019-01-11T21:44:52.826Z,8.30
2019-01-11T21:47:20.505Z,9.27
2019-01-11T21:49:48.737Z,9.63
2019-01-11T21:52:18.841Z,8.77
2019-01-11T21:54:47.889Z,9.10
2019-01-11T21:57:16.929Z,8.93
2019-01-11T21:59:47.977Z,8.57
2019-01-11T22:02:21.258Z,9.10
2019-01-11T22:04:49.000Z,8.93
2019-01-11T22:07:16.712Z,9.40
2019-01-11T22:09:44.317Z,9.00
2019-01-11T22:12:33.244Z,8.80
2019-01-11T22:15:14.400Z,9.10
2019-01-11T22:17:42.385Z,9.63
2019-01-11T22:20:17.466Z,8.83
2019-01-11T22:22:55.696Z,9.47
2019-01-11T22:25:30.235Z,9.23
2019-01-11T22:28:00.029Z,8.80
2019-01-11T22:30:30.557Z,9.20
2019-01-11T22:32:58.408Z,9.80
2019-01-11T22:35:34.949Z,8.63
2019-01-11T22:38:08.001Z,8.80
2019-01-11T22:40:37.697Z,8.23
2019-01-11T22:43:11.270Z,8.40
2019-01-11T22:45:50.648Z,8.87
2019-01-11T22:48:18.285Z,9.07
2019-01-11T22:50:48.585Z,9.23
2019-01-11T22:53:16.256Z,8.70
2019-01-11T22:55:46.311Z,8.57
2019-01-11T22:58:21.040Z,9.20
2019-01-11T23:01:06.275Z,9.10
2019-01-11T23:03:40.825Z,9.30
2019-01-11T23:06:52.137Z,8.80
2019-01-11T23:09:24.262Z,9.33
2019-01-11T23:12:14.942Z,8.33
2019-01-11T23:15:07.616Z,8.67
2019-01-11T23:18:20.919Z,9.83
2019-01-11T23:20:52.611Z,8.80
2019-01-11T23:23:20.486Z,9.70
2019-01-11T23:25:55.913Z,9.87
2019-01-11T23:28:28.280Z,9.93
2019-01-11T23:30:56.288Z,9.63
2019-01-11T23:33:38.279Z,9.03
2019-01-11T23:36:05.989Z,10.37
2019-01-11T23:38:35.267Z,9.93
2019-01-11T23:41:05.919Z,9.53
2019-01-11T23:43:33.806Z,9.93
2019-01-11T23:46:04.629Z,10.07
2019-01-11T23:48:38.515Z,10.50
2019-01-11T23:51:09.301Z,10.97
2019-01-11T23:53:42.513Z,10.77
2019-01-11T23:56:28.341Z,11.40
2019-01-11T23:58:56.032Z,9.97
